sensor_id;sensor_type;location;lat;lon;timestamp;P1;durP1;ratioP1;P2;durP2;ratioP2
3000;SDS011;1510;51.072;6.678;2024-03-25T00:01:37;774.43;;;735.17;;
3000;SDS011;1510;51.072;6.678;2024-03-25T00:04:04;783.27;;;743.50;;
3000;SDS011;1510;51.072;6.678;2024-03-25T00:06:30;814.10;;;771.50;;
3000;SDS011;1510;51.072;6.678;2024-03-25T00:08:58;773.40;;;733.83;;
3000;SDS011;1510;51.072;6.678;2024-03-25T00:11:24;833.90;;;789.03;;
3000;SDS011;1510;51.072;6.678;2024-03-25T00:13:51;893.97;;;840.93;;
3000;SDS011;1510;51.072;6.678;2024-03-25T00:16:17;897.13;;;843.63;;
3000;SDS011;1510;51.072;6.678;2024-03-25T00:18:45;923.53;;;866.17;;
3000;SDS011;1510;51.072;6.678;2024-03-25T00:21:11;932.27;;;872.50;;
3000;SDS011;1510;51.072;6.678;2024-03-25T00:23:37;925.83;;;867.20;;
3000;SDS011;1510;51.072;6.678;2024-03-25T00:26:03;895.87;;;843.37;;
3000;SDS011;1510;51.072;6.678;2024-03-25T00:28:30;914.23;;;856.97;;
3000;SDS011;1510;51.072;6.678;2024-03-25T00:30:56;900.70;;;846.50;;
3000;SDS011;1510;51.072;6.678;2024-03-25T00:33:23;886.07;;;832.97;;
3000;SDS011;1510;51.072;6.678;2024-03-25T00:35:50;865.93;;;816.43;;
3000;SDS011;1510;51.072;6.678;2024-03-25T00:38:17;857.67;;;808.43;;
3000;SDS011;1510;51.072;6.678;2024-03-25T00:40:44;843.13;;;795.73;;
3000;SDS011;1510;51.072;6.678;2024-03-25T00:43:11;843.20;;;795.43;;
3000;SDS011;1510;51.072;6.678;2024-03-25T00:45:37;859.67;;;809.47;;
3000;SDS011;1510;51.072;6.678;2024-03-25T00:48:04;840.27;;;792.03;;
3000;SDS011;1510;51.072;6.678;2024-03-25T00:50:30;842.63;;;793.77;;
3000;SDS011;1510;51.072;6.678;2024-03-25T00:52:58;834.50;;;786.73;;
3000;SDS011;1510;51.072;6.678;2024-03-25T00:55:24;850.83;;;801.47;;
3000;SDS011;1510;51.072;6.678;2024-03-25T00:57:51;840.40;;;791.90;;
3000;SDS011;1510;51.072;6.678;2024-03-25T01:00:17;837.77;;;790.37;;
3000;SDS011;1510;51.072;6.678;2024-03-25T01:02:44;797.67;;;754.87;;
3000;SDS011;1510;51.072;6.678;2024-03-25T01:05:10;809.73;;;765.77;;
3000;SDS011;1510;51.072;6.678;2024-03-25T01:07:37;815.60;;;770.63;;
3000;SDS011;1510;51.072;6.678;2024-03-25T01:10:05;811.43;;;765.23;;
3000;SDS011;1510;51.072;6.678;2024-03-25T01:12:32;823.10;;;775.90;;
3000;SDS011;1510;51.072;6.678;2024-03-25T01:14:58;819.87;;;773.67;;
3000;SDS011;1510;51.072;6.678;2024-03-25T01:17:25;777.77;;;735.37;;
3000;SDS011;1510;51.072;6.678;2024-03-25T01:19:50;754.13;;;715.27;;
3000;SDS011;1510;51.072;6.678;2024-03-25T01:22:17;777.63;;;735.33;;
3000;SDS011;1510;51.072;6.678;2024-03-25T01:24:43;797.93;;;754.17;;
3000;SDS011;1510;51.072;6.678;2024-03-25T01:27:11;770.90;;;729.70;;
3000;SDS011;1510;51.072;6.678;2024-03-25T01:29:37;741.17;;;702.77;;
3000;SDS011;1510;51.072;6.678;2024-03-25T01:32:04;729.60;;;693.20;;
3000;SDS011;1510;51.072;6.678;2024-03-25T01:34:30;742.80;;;706.00;;
3000;SDS011;1510;51.072;6.678;2024-03-25T01:36:57;759.97;;;721.43;;
3000;SDS011;1510;51.072;6.678;2024-03-25T01:39:23;807.43;;;763.87;;
3000;SDS011;1510;51.072;6.678;2024-03-25T01:41:50;846.60;;;799.70;;
3000;SDS011;1510;51.072;6.678;2024-03-25T01:44:17;874.07;;;825.20;;
3000;SDS011;1510;51.072;6.678;2024-03-25T01:46:44;895.00;;;843.93;;
3000;SDS011;1510;51.072;6.678;2024-03-25T01:49:10;894.30;;;843.03;;
3000;SDS011;1510;51.072;6.678;2024-03-25T01:51:37;904.33;;;851.60;;
3000;SDS011;1510;51.072;6.678;2024-03-25T01:54:04;914.13;;;860.33;;
3000;SDS011;1510;51.072;6.678;2024-03-25T01:56:33;917.80;;;862.17;;
3000;SDS011;1510;51.072;6.678;2024-03-25T01:59:00;907.30;;;852.33;;
3000;SDS011;1510;51.072;6.678;2024-03-25T02:01:28;918.63;;;860.90;;
3000;SDS011;1510;51.072;6.678;2024-03-25T02:03:55;907.03;;;851.23;;
3000;SDS011;1510;51.072;6.678;2024-03-25T02:06:23;892.47;;;838.50;;
3000;SDS011;1510;51.072;6.678;2024-03-25T02:08:52;867.57;;;816.17;;
3000;SDS011;1510;51.072;6.678;2024-03-25T02:11:20;850.97;;;801.13;;
3000;SDS011;1510;51.072;6.678;2024-03-25T02:13:48;842.90;;;794.27;;
3000;SDS011;1510;51.072;6.678;2024-03-25T02:16:15;839.70;;;790.83;;
3000;SDS011;1510;51.072;6.678;2024-03-25T02:18:42;875.87;;;824.27;;
3000;SDS011;1510;51.072;6.678;2024-03-25T02:21:09;862.30;;;810.67;;
3000;SDS011;1510;51.072;6.678;2024-03-25T02:23:35;848.73;;;798.67;;
3000;SDS011;1510;51.072;6.678;2024-03-25T02:26:06;838.90;;;788.97;;
3000;SDS011;1510;51.072;6.678;2024-03-25T02:28:32;812.43;;;764.17;;
3000;SDS011;1510;51.072;6.678;2024-03-25T02:30:58;808.93;;;762.07;;
3000;SDS011;1510;51.072;6.678;2024-03-25T02:33:25;788.00;;;742.67;;
3000;SDS011;1510;51.072;6.678;2024-03-25T02:35:51;726.93;;;689.87;;
3000;SDS011;1510;51.072;6.678;2024-03-25T02:38:18;708.30;;;672.60;;
3000;SDS011;1510;51.072;6.678;2024-03-25T02:40:45;680.67;;;646.47;;
3000;SDS011;1510;51.072;6.678;2024-03-25T02:43:13;690.37;;;655.67;;
3000;SDS011;1510;51.072;6.678;2024-03-25T02:45:39;669.53;;;636.23;;
3000;SDS011;1510;51.072;6.678;2024-03-25T02:48:06;674.50;;;641.17;;
3000;SDS011;1510;51.072;6.678;2024-03-25T02:50:32;688.07;;;654.10;;
3000;SDS011;1510;51.072;6.678;2024-03-25T02:52:59;641.17;;;611.17;;
3000;SDS011;1510;51.072;6.678;2024-03-25T02:55:25;624.97;;;595.07;;
3000;SDS011;1510;51.072;6.678;2024-03-25T02:57:51;622.30;;;593.93;;
3000;SDS011;1510;51.072;6.678;2024-03-25T03:00:19;645.70;;;615.47;;
3000;SDS011;1510;51.072;6.678;2024-03-25T03:02:45;621.80;;;592.87;;
3000;SDS011;1510;51.072;6.678;2024-03-25T03:05:11;639.63;;;609.00;;
3000;SDS011;1510;51.072;6.678;2024-03-25T03:07:38;672.03;;;638.33;;
3000;SDS011;1510;51.072;6.678;2024-03-25T03:10:04;660.47;;;628.30;;
3000;SDS011;1510;51.072;6.678;2024-03-25T03:12:31;671.73;;;638.83;;
3000;SDS011;1510;51.072;6.678;2024-03-25T03:14:57;709.90;;;673.60;;
3000;SDS011;1510;51.072;6.678;2024-03-25T03:17:25;740.60;;;700.03;;
3000;SDS011;1510;51.072;6.678;2024-03-25T03:19:51;763.80;;;721.50;;
3000;SDS011;1510;51.072;6.678;2024-03-25T03:22:18;749.53;;;708.73;;
3000;SDS011;1510;51.072;6.678;2024-03-25T03:24:44;806.97;;;761.10;;
3000;SDS011;1510;51.072;6.678;2024-03-25T03:27:10;813.87;;;766.77;;
3000;SDS011;1510;51.072;6.678;2024-03-25T03:29:36;860.37;;;808.57;;
3000;SDS011;1510;51.072;6.678;2024-03-25T03:32:04;843.07;;;793.07;;
3000;SDS011;1510;51.072;6.678;2024-03-25T03:34:31;861.70;;;810.63;;
3000;SDS011;1510;51.072;6.678;2024-03-25T03:36:58;887.07;;;832.67;;
3000;SDS011;1510;51.072;6.678;2024-03-25T03:39:23;908.00;;;850.57;;
3000;SDS011;1510;51.072;6.678;2024-03-25T03:41:50;900.83;;;841.87;;
3000;SDS011;1510;51.072;6.678;2024-03-25T03:44:16;916.07;;;854.83;;
3000;SDS011;1510;51.072;6.678;2024-03-25T03:46:43;910.17;;;850.97;;
3000;SDS011;1510;51.072;6.678;2024-03-25T03:49:08;910.13;;;850.33;;
3000;SDS011;1510;51.072;6.678;2024-03-25T03:51:37;909.20;;;850.10;;
3000;SDS011;1510;51.072;6.678;2024-03-25T03:54:02;921.60;;;859.90;;
3000;SDS011;1510;51.072;6.678;2024-03-25T03:56:29;925.30;;;861.87;;
3000;SDS011;1510;51.072;6.678;2024-03-25T03:58:55;935.10;;;870.77;;
3000;SDS011;1510;51.072;6.678;2024-03-25T04:01:22;939.77;;;870.80;;
3000;SDS011;1510;51.072;6.678;2024-03-25T04:03:48;946.97;;;877.30;;
3000;SDS011;1510;51.072;6.678;2024-03-25T04:06:14;944.67;;;876.27;;
3000;SDS011;1510;51.072;6.678;2024-03-25T04:08:42;943.50;;;872.17;;
3000;SDS011;1510;51.072;6.678;2024-03-25T04:11:08;943.43;;;874.37;;
3000;SDS011;1510;51.072;6.678;2024-03-25T04:13:35;945.80;;;874.70;;
3000;SDS011;1510;51.072;6.678;2024-03-25T04:16:02;936.50;;;865.90;;
3000;SDS011;1510;51.072;6.678;2024-03-25T04:18:29;941.47;;;869.10;;
3000;SDS011;1510;51.072;6.678;2024-03-25T04:20:57;948.70;;;875.97;;
3000;SDS011;1510;51.072;6.678;2024-03-25T04:23:23;945.97;;;873.97;;
3000;SDS011;1510;51.072;6.678;2024-03-25T04:25:51;947.43;;;872.13;;
3000;SDS011;1510;51.072;6.678;2024-03-25T04:28:18;941.70;;;867.60;;
3000;SDS011;1510;51.072;6.678;2024-03-25T04:30:50;948.20;;;872.20;;
3000;SDS011;1510;51.072;6.678;2024-03-25T04:33:16;947.57;;;870.90;;
3000;SDS011;1510;51.072;6.678;2024-03-25T04:35:43;960.43;;;881.43;;
3000;SDS011;1510;51.072;6.678;2024-03-25T04:38:10;955.87;;;873.07;;
3000;SDS011;1510;51.072;6.678;2024-03-25T04:40:36;956.13;;;872.07;;
3000;SDS011;1510;51.072;6.678;2024-03-25T04:43:03;957.53;;;870.03;;
3000;SDS011;1510;51.072;6.678;2024-03-25T04:45:29;959.37;;;871.80;;
3000;SDS011;1510;51.072;6.678;2024-03-25T04:47:55;951.37;;;863.70;;
3000;SDS011;1510;51.072;6.678;2024-03-25T04:50:21;947.93;;;862.30;;
3000;SDS011;1510;51.072;6.678;2024-03-25T04:52:46;943.27;;;856.87;;
3000;SDS011;1510;51.072;6.678;2024-03-25T04:55:12;951.77;;;864.07;;
3000;SDS011;1510;51.072;6.678;2024-03-25T04:57:38;946.53;;;858.90;;
3000;SDS011;1510;51.072;6.678;2024-03-25T05:00:06;937.70;;;849.63;;
3000;SDS011;1510;51.072;6.678;2024-03-25T05:02:34;911.70;;;825.27;;
3000;SDS011;1510;51.072;6.678;2024-03-25T05:05:00;919.00;;;832.73;;
3000;SDS011;1510;51.072;6.678;2024-03-25T05:07:26;933.20;;;846.50;;
3000;SDS011;1510;51.072;6.678;2024-03-25T05:09:52;943.17;;;855.03;;
3000;SDS011;1510;51.072;6.678;2024-03-25T05:12:18;926.67;;;838.37;;
3000;SDS011;1510;51.072;6.678;2024-03-25T05:14:43;927.93;;;838.87;;
3000;SDS011;1510;51.072;6.678;2024-03-25T05:17:11;941.97;;;850.70;;
3000;SDS011;1510;51.072;6.678;2024-03-25T05:19:37;933.17;;;842.17;;
3000;SDS011;1510;51.072;6.678;2024-03-25T05:22:03;928.83;;;838.93;;
3000;SDS011;1510;51.072;6.678;2024-03-25T05:24:28;939.00;;;847.83;;
3000;SDS011;1510;51.072;6.678;2024-03-25T05:26:54;930.97;;;840.10;;
3000;SDS011;1510;51.072;6.678;2024-03-25T05:29:20;933.97;;;841.73;;
3000;SDS011;1510;51.072;6.678;2024-03-25T05:31:55;930.00;;;836.20;;
3000;SDS011;1510;51.072;6.678;2024-03-25T05:34:23;927.20;;;833.57;;
3000;SDS011;1510;51.072;6.678;2024-03-25T05:36:49;929.97;;;836.00;;
3000;SDS011;1510;51.072;6.678;2024-03-25T05:39:15;906.10;;;813.50;;
3000;SDS011;1510;51.072;6.678;2024-03-25T05:41:41;908.23;;;816.03;;
3000;SDS011;1510;51.072;6.678;2024-03-25T05:44:07;902.83;;;810.90;;
3000;SDS011;1510;51.072;6.678;2024-03-25T05:46:33;904.37;;;810.17;;
3000;SDS011;1510;51.072;6.678;2024-03-25T05:49:01;910.37;;;817.50;;
3000;SDS011;1510;51.072;6.678;2024-03-25T05:51:28;908.77;;;814.47;;
3000;SDS011;1510;51.072;6.678;2024-03-25T05:53:54;909.47;;;815.53;;
3000;SDS011;1510;51.072;6.678;2024-03-25T05:56:22;908.93;;;814.97;;
3000;SDS011;1510;51.072;6.678;2024-03-25T05:58:52;892.77;;;798.57;;
3000;SDS011;1510;51.072;6.678;2024-03-25T06:01:18;892.97;;;800.70;;
3000;SDS011;1510;51.072;6.678;2024-03-25T06:03:44;906.20;;;812.97;;
3000;SDS011;1510;51.072;6.678;2024-03-25T06:06:10;890.67;;;796.73;;
3000;SDS011;1510;51.072;6.678;2024-03-25T06:08:37;885.63;;;792.10;;
3000;SDS011;1510;51.072;6.678;2024-03-25T06:11:03;889.43;;;794.83;;
3000;SDS011;1510;51.072;6.678;2024-03-25T06:13:29;890.20;;;796.23;;
3000;SDS011;1510;51.072;6.678;2024-03-25T06:15:55;889.03;;;795.20;;
3000;SDS011;1510;51.072;6.678;2024-03-25T06:18:21;912.07;;;817.97;;
3000;SDS011;1510;51.072;6.678;2024-03-25T06:20:46;914.97;;;819.60;;
3000;SDS011;1510;51.072;6.678;2024-03-25T06:23:21;904.10;;;807.70;;
3000;SDS011;1510;51.072;6.678;2024-03-25T06:25:50;909.37;;;813.33;;
3000;SDS011;1510;51.072;6.678;2024-03-25T06:28:16;902.83;;;806.00;;
3000;SDS011;1510;51.072;6.678;2024-03-25T06:30:42;910.13;;;813.73;;
3000;SDS011;1510;51.072;6.678;2024-03-25T06:33:38;910.03;;;812.23;;
3000;SDS011;1510;51.072;6.678;2024-03-25T06:36:22;918.53;;;820.40;;
3000;SDS011;1510;51.072;6.678;2024-03-25T06:38:48;916.97;;;817.47;;
3000;SDS011;1510;51.072;6.678;2024-03-25T06:41:15;922.63;;;825.93;;
3000;SDS011;1510;51.072;6.678;2024-03-25T06:43:41;926.37;;;828.87;;
3000;SDS011;1510;51.072;6.678;2024-03-25T06:46:07;927.43;;;831.40;;
3000;SDS011;1510;51.072;6.678;2024-03-25T06:48:33;928.50;;;834.37;;
3000;SDS011;1510;51.072;6.678;2024-03-25T06:51:00;926.33;;;831.50;;
3000;SDS011;1510;51.072;6.678;2024-03-25T06:53:27;911.30;;;816.97;;
3000;SDS011;1510;51.072;6.678;2024-03-25T06:55:53;906.83;;;814.83;;
3000;SDS011;1510;51.072;6.678;2024-03-25T06:58:22;908.53;;;816.20;;
3000;SDS011;1510;51.072;6.678;2024-03-25T07:00:49;905.47;;;812.87;;
3000;SDS011;1510;51.072;6.678;2024-03-25T07:03:15;910.40;;;818.77;;
3000;SDS011;1510;51.072;6.678;2024-03-25T07:05:41;908.30;;;817.40;;
3000;SDS011;1510;51.072;6.678;2024-03-25T07:08:09;907.77;;;816.90;;
3000;SDS011;1510;51.072;6.678;2024-03-25T07:10:35;907.83;;;816.83;;
3000;SDS011;1510;51.072;6.678;2024-03-25T07:13:01;910.97;;;819.80;;
3000;SDS011;1510;51.072;6.678;2024-03-25T07:15:28;917.87;;;827.83;;
3000;SDS011;1510;51.072;6.678;2024-03-25T07:17:54;906.87;;;818.73;;
3000;SDS011;1510;51.072;6.678;2024-03-25T07:20:20;908.47;;;821.87;;
3000;SDS011;1510;51.072;6.678;2024-03-25T07:22:46;900.73;;;815.50;;
3000;SDS011;1510;51.072;6.678;2024-03-25T07:25:12;892.93;;;810.10;;
3000;SDS011;1510;51.072;6.678;2024-03-25T07:27:38;890.43;;;812.67;;
3000;SDS011;1510;51.072;6.678;2024-03-25T07:30:04;891.90;;;815.50;;
3000;SDS011;1510;51.072;6.678;2024-03-25T07:32:32;892.63;;;818.23;;
3000;SDS011;1510;51.072;6.678;2024-03-25T07:34:58;892.73;;;818.10;;
3000;SDS011;1510;51.072;6.678;2024-03-25T07:37:24;882.77;;;810.27;;
3000;SDS011;1510;51.072;6.678;2024-03-25T07:39:50;878.10;;;810.30;;
3000;SDS011;1510;51.072;6.678;2024-03-25T07:42:16;878.30;;;813.50;;
3000;SDS011;1510;51.072;6.678;2024-03-25T07:44:42;843.20;;;783.10;;
3000;SDS011;1510;51.072;6.678;2024-03-25T07:47:08;827.80;;;771.33;;
3000;SDS011;1510;51.072;6.678;2024-03-25T07:49:35;818.67;;;765.17;;
3000;SDS011;1510;51.072;6.678;2024-03-25T07:52:01;798.20;;;747.23;;
3000;SDS011;1510;51.072;6.678;2024-03-25T07:54:28;777.00;;;729.80;;
3000;SDS011;1510;51.072;6.678;2024-03-25T07:56:54;741.37;;;700.63;;
3000;SDS011;1510;51.072;6.678;2024-03-25T07:59:19;387.08;;;372.63;;
3000;SDS011;1510;51.072;6.678;2024-03-25T08:01:45;460.73;;;443.47;;
3000;SDS011;1510;51.072;6.678;2024-03-25T08:04:11;255.70;;;246.87;;
3000;SDS011;1510;51.072;6.678;2024-03-25T08:06:38;232.87;;;223.67;;
3000;SDS011;1510;51.072;6.678;2024-03-25T08:09:04;224.10;;;212.07;;
3000;SDS011;1510;51.072;6.678;2024-03-25T08:11:30;210.77;;;199.43;;
3000;SDS011;1510;51.072;6.678;2024-03-25T08:13:56;187.73;;;177.43;;
3000;SDS011;1510;51.072;6.678;2024-03-25T08:16:22;81.63;;;77.17;;
3000;SDS011;1510;51.072;6.678;2024-03-25T08:18:48;50.77;;;47.37;;
3000;SDS011;1510;51.072;6.678;2024-03-25T08:21:14;23.40;;;16.53;;
3000;SDS011;1510;51.072;6.678;2024-03-25T08:23:41;25.83;;;13.27;;
3000;SDS011;1510;51.072;6.678;2024-03-25T08:26:09;16.90;;;10.73;;
3000;SDS011;1510;51.072;6.678;2024-03-25T08:28:35;27.57;;;12.77;;
3000;SDS011;1510;51.072;6.678;2024-03-25T08:31:01;29.03;;;11.73;;
3000;SDS011;1510;51.072;6.678;2024-03-25T08:33:27;21.37;;;11.57;;
3000;SDS011;1510;51.072;6.678;2024-03-25T08:35:53;33.27;;;12.43;;
3000;SDS011;1510;51.072;6.678;2024-03-25T08:38:19;27.53;;;12.50;;
3000;SDS011;1510;51.072;6.678;2024-03-25T08:40:46;19.97;;;11.00;;
3000;SDS011;1510;51.072;6.678;2024-03-25T08:43:12;21.03;;;9.87;;
3000;SDS011;1510;51.072;6.678;2024-03-25T08:45:41;41.90;;;9.30;;
3000;SDS011;1510;51.072;6.678;2024-03-25T08:48:07;27.67;;;9.10;;
3000;SDS011;1510;51.072;6.678;2024-03-25T08:50:32;22.40;;;11.00;;
3000;SDS011;1510;51.072;6.678;2024-03-25T08:52:58;33.90;;;11.23;;
3000;SDS011;1510;51.072;6.678;2024-03-25T08:55:24;17.57;;;6.77;;
3000;SDS011;1510;51.072;6.678;2024-03-25T08:57:51;16.70;;;8.00;;
3000;SDS011;1510;51.072;6.678;2024-03-25T09:00:17;16.17;;;7.80;;
3000;SDS011;1510;51.072;6.678;2024-03-25T09:02:43;19.90;;;8.40;;
3000;SDS011;1510;51.072;6.678;2024-03-25T09:05:10;23.57;;;7.50;;
3000;SDS011;1510;51.072;6.678;2024-03-25T09:07:36;23.50;;;9.13;;
3000;SDS011;1510;51.072;6.678;2024-03-25T09:10:02;19.20;;;8.33;;
3000;SDS011;1510;51.072;6.678;2024-03-25T09:12:46;20.63;;;8.37;;
3000;SDS011;1510;51.072;6.678;2024-03-25T09:15:13;27.47;;;9.67;;
3000;SDS011;1510;51.072;6.678;2024-03-25T09:17:39;18.57;;;7.73;;
3000;SDS011;1510;51.072;6.678;2024-03-25T09:20:06;20.23;;;9.13;;
3000;SDS011;1510;51.072;6.678;2024-03-25T09:22:33;16.17;;;9.30;;
3000;SDS011;1510;51.072;6.678;2024-03-25T09:24:59;21.57;;;8.50;;
3000;SDS011;1510;51.072;6.678;2024-03-25T09:27:25;19.03;;;7.80;;
3000;SDS011;1510;51.072;6.678;2024-03-25T09:29:50;16.07;;;8.90;;
3000;SDS011;1510;51.072;6.678;2024-03-25T09:32:18;16.37;;;7.63;;
3000;SDS011;1510;51.072;6.678;2024-03-25T09:34:44;24.00;;;12.43;;
3000;SDS011;1510;51.072;6.678;2024-03-25T09:37:10;16.47;;;7.87;;
3000;SDS011;1510;51.072;6.678;2024-03-25T09:39:36;25.93;;;8.33;;
3000;SDS011;1510;51.072;6.678;2024-03-25T09:42:02;17.03;;;7.20;;
3000;SDS011;1510;51.072;6.678;2024-03-25T09:44:33;16.80;;;8.77;;
3000;SDS011;1510;51.072;6.678;2024-03-25T09:46:59;17.17;;;7.40;;
3000;SDS011;1510;51.072;6.678;2024-03-25T09:49:28;15.83;;;7.53;;
3000;SDS011;1510;51.072;6.678;2024-03-25T09:51:55;19.00;;;8.30;;
3000;SDS011;1510;51.072;6.678;2024-03-25T09:54:21;19.00;;;7.87;;
3000;SDS011;1510;51.072;6.678;2024-03-25T09:56:47;21.60;;;7.50;;
3000;SDS011;1510;51.072;6.678;2024-03-25T09:59:14;18.10;;;7.37;;
3000;SDS011;1510;51.072;6.678;2024-03-25T10:01:40;16.73;;;8.87;;
3000;SDS011;1510;51.072;6.678;2024-03-25T10:04:07;16.80;;;8.13;;
3000;SDS011;1510;51.072;6.678;2024-03-25T10:06:35;18.90;;;9.37;;
3000;SDS011;1510;51.072;6.678;2024-03-25T10:09:04;17.43;;;8.40;;
3000;SDS011;1510;51.072;6.678;2024-03-25T10:11:31;13.63;;;8.70;;
3000;SDS011;1510;51.072;6.678;2024-03-25T10:13:57;14.83;;;7.53;;
3000;SDS011;1510;51.072;6.678;2024-03-25T10:16:23;16.13;;;8.40;;
3000;SDS011;1510;51.072;6.678;2024-03-25T10:18:49;24.00;;;7.50;;
3000;SDS011;1510;51.072;6.678;2024-03-25T10:21:15;19.50;;;7.93;;
3000;SDS011;1510;51.072;6.678;2024-03-25T10:23:46;16.17;;;8.50;;
3000;SDS011;1510;51.072;6.678;2024-03-25T10:26:25;18.17;;;8.30;;
3000;SDS011;1510;51.072;6.678;2024-03-25T10:28:58;13.17;;;6.60;;
3000;SDS011;1510;51.072;6.678;2024-03-25T10:31:25;15.07;;;7.13;;
3000;SDS011;1510;51.072;6.678;2024-03-25T10:33:51;15.60;;;6.37;;
3000;SDS011;1510;51.072;6.678;2024-03-25T10:36:18;13.60;;;6.30;;
3000;SDS011;1510;51.072;6.678;2024-03-25T10:38:47;17.27;;;6.70;;
3000;SDS011;1510;51.072;6.678;2024-03-25T10:41:16;16.57;;;7.10;;
3000;SDS011;1510;51.072;6.678;2024-03-25T10:43:44;17.70;;;6.80;;
3000;SDS011;1510;51.072;6.678;2024-03-25T10:46:12;13.47;;;7.07;;
3000;SDS011;1510;51.072;6.678;2024-03-25T10:48:44;15.87;;;7.90;;
3000;SDS011;1510;51.072;6.678;2024-03-25T10:51:16;16.70;;;5.73;;
3000;SDS011;1510;51.072;6.678;2024-03-25T10:53:43;18.13;;;6.43;;
3000;SDS011;1510;51.072;6.678;2024-03-25T10:56:12;13.97;;;6.67;;
3000;SDS011;1510;51.072;6.678;2024-03-25T10:58:39;12.47;;;5.37;;
3000;SDS011;1510;51.072;6.678;2024-03-25T11:01:06;12.23;;;5.53;;
3000;SDS011;1510;51.072;6.678;2024-03-25T11:03:33;8.90;;;4.30;;
3000;SDS011;1510;51.072;6.678;2024-03-25T11:06:00;13.17;;;5.47;;
3000;SDS011;1510;51.072;6.678;2024-03-25T11:08:30;10.90;;;4.10;;
3000;SDS011;1510;51.072;6.678;2024-03-25T11:10:56;13.13;;;4.80;;
3000;SDS011;1510;51.072;6.678;2024-03-25T11:13:26;12.13;;;5.03;;
3000;SDS011;1510;51.072;6.678;2024-03-25T11:15:52;12.23;;;4.97;;
3000;SDS011;1510;51.072;6.678;2024-03-25T11:18:23;10.53;;;5.40;;
3000;SDS011;1510;51.072;6.678;2024-03-25T11:20:59;15.83;;;4.77;;
3000;SDS011;1510;51.072;6.678;2024-03-25T11:23:26;20.10;;;7.47;;
3000;SDS011;1510;51.072;6.678;2024-03-25T11:25:54;15.30;;;5.80;;
3000;SDS011;1510;51.072;6.678;2024-03-25T11:28:27;9.87;;;4.53;;
3000;SDS011;1510;51.072;6.678;2024-03-25T11:30:54;13.30;;;5.20;;
3000;SDS011;1510;51.072;6.678;2024-03-25T11:33:20;9.43;;;4.47;;
3000;SDS011;1510;51.072;6.678;2024-03-25T11:35:47;15.03;;;5.00;;
3000;SDS011;1510;51.072;6.678;2024-03-25T11:38:12;14.80;;;5.63;;
3000;SDS011;1510;51.072;6.678;2024-03-25T11:40:38;11.60;;;4.47;;
3000;SDS011;1510;51.072;6.678;2024-03-25T11:43:08;11.13;;;4.30;;
3000;SDS011;1510;51.072;6.678;2024-03-25T11:45:36;11.63;;;3.90;;
3000;SDS011;1510;51.072;6.678;2024-03-25T11:48:02;9.03;;;3.50;;
3000;SDS011;1510;51.072;6.678;2024-03-25T11:50:28;9.40;;;4.30;;
3000;SDS011;1510;51.072;6.678;2024-03-25T11:52:54;11.80;;;4.00;;
3000;SDS011;1510;51.072;6.678;2024-03-25T11:55:20;12.53;;;3.00;;
3000;SDS011;1510;51.072;6.678;2024-03-25T11:57:46;10.67;;;3.00;;
3000;SDS011;1510;51.072;6.678;2024-03-25T12:00:19;11.80;;;3.40;;
3000;SDS011;1510;51.072;6.678;2024-03-25T12:02:47;9.50;;;3.40;;
3000;SDS011;1510;51.072;6.678;2024-03-25T12:05:13;11.00;;;3.23;;
3000;SDS011;1510;51.072;6.678;2024-03-25T12:07:39;11.10;;;3.20;;
3000;SDS011;1510;51.072;6.678;2024-03-25T12:10:05;10.40;;;3.63;;
3000;SDS011;1510;51.072;6.678;2024-03-25T12:12:50;7.10;;;3.00;;
3000;SDS011;1510;51.072;6.678;2024-03-25T12:15:16;10.00;;;2.90;;
3000;SDS011;1510;51.072;6.678;2024-03-25T12:17:42;7.83;;;3.13;;
3000;SDS011;1510;51.072;6.678;2024-03-25T12:20:10;10.17;;;2.90;;
3000;SDS011;1510;51.072;6.678;2024-03-25T12:22:36;11.23;;;4.03;;
3000;SDS011;1510;51.072;6.678;2024-03-25T12:25:03;8.00;;;2.67;;
3000;SDS011;1510;51.072;6.678;2024-03-25T12:27:30;14.07;;;3.33;;
3000;SDS011;1510;51.072;6.678;2024-03-25T12:29:57;10.70;;;2.90;;
3000;SDS011;1510;51.072;6.678;2024-03-25T12:32:30;9.37;;;2.90;;
3000;SDS011;1510;51.072;6.678;2024-03-25T12:35:07;7.93;;;2.77;;
3000;SDS011;1510;51.072;6.678;2024-03-25T12:37:35;12.23;;;4.40;;
3000;SDS011;1510;51.072;6.678;2024-03-25T12:40:02;8.43;;;2.50;;
3000;SDS011;1510;51.072;6.678;2024-03-25T12:42:29;8.33;;;2.80;;
3000;SDS011;1510;51.072;6.678;2024-03-25T12:44:55;9.80;;;2.10;;
3000;SDS011;1510;51.072;6.678;2024-03-25T12:47:22;7.77;;;2.57;;
3000;SDS011;1510;51.072;6.678;2024-03-25T12:49:48;6.90;;;2.40;;
3000;SDS011;1510;51.072;6.678;2024-03-25T12:52:14;7.17;;;2.67;;
3000;SDS011;1510;51.072;6.678;2024-03-25T12:54:41;6.70;;;2.00;;
3000;SDS011;1510;51.072;6.678;2024-03-25T12:57:07;11.17;;;3.37;;
3000;SDS011;1510;51.072;6.678;2024-03-25T12:59:33;9.70;;;3.00;;
3000;SDS011;1510;51.072;6.678;2024-03-25T13:01:59;6.90;;;2.73;;
3000;SDS011;1510;51.072;6.678;2024-03-25T13:04:25;9.10;;;2.10;;
3000;SDS011;1510;51.072;6.678;2024-03-25T13:06:51;7.10;;;2.17;;
3000;SDS011;1510;51.072;6.678;2024-03-25T13:09:18;8.23;;;2.40;;
3000;SDS011;1510;51.072;6.678;2024-03-25T13:11:45;13.23;;;2.83;;
3000;SDS011;1510;51.072;6.678;2024-03-25T13:14:11;10.57;;;2.73;;
3000;SDS011;1510;51.072;6.678;2024-03-25T13:16:37;5.30;;;2.00;;
3000;SDS011;1510;51.072;6.678;2024-03-25T13:19:03;11.83;;;2.87;;
3000;SDS011;1510;51.072;6.678;2024-03-25T13:21:29;8.37;;;2.17;;
3000;SDS011;1510;51.072;6.678;2024-03-25T13:23:55;6.43;;;2.10;;
3000;SDS011;1510;51.072;6.678;2024-03-25T13:26:21;7.27;;;1.90;;
3000;SDS011;1510;51.072;6.678;2024-03-25T13:28:48;5.50;;;1.80;;
3000;SDS011;1510;51.072;6.678;2024-03-25T13:31:14;11.20;;;2.50;;
3000;SDS011;1510;51.072;6.678;2024-03-25T13:33:40;7.47;;;2.30;;
3000;SDS011;1510;51.072;6.678;2024-03-25T13:36:06;8.75;;;2.72;;
3000;SDS011;1510;51.072;6.678;2024-03-25T13:38:33;5.77;;;1.80;;
3000;SDS011;1510;51.072;6.678;2024-03-25T13:40:59;8.60;;;2.60;;
3000;SDS011;1510;51.072;6.678;2024-03-25T13:43:25;8.93;;;2.17;;
3000;SDS011;1510;51.072;6.678;2024-03-25T13:45:52;6.37;;;2.33;;
3000;SDS011;1510;51.072;6.678;2024-03-25T13:48:18;5.43;;;1.60;;
3000;SDS011;1510;51.072;6.678;2024-03-25T13:50:44;7.73;;;2.80;;
3000;SDS011;1510;51.072;6.678;2024-03-25T13:53:10;6.70;;;1.77;;
3000;SDS011;1510;51.072;6.678;2024-03-25T13:55:36;8.00;;;2.20;;
3000;SDS011;1510;51.072;6.678;2024-03-25T13:58:02;7.47;;;2.00;;
3000;SDS011;1510;51.072;6.678;2024-03-25T14:00:28;5.57;;;2.20;;
3000;SDS011;1510;51.072;6.678;2024-03-25T14:02:55;10.00;;;2.30;;
3000;SDS011;1510;51.072;6.678;2024-03-25T14:05:21;7.50;;;2.07;;
3000;SDS011;1510;51.072;6.678;2024-03-25T14:07:48;9.50;;;2.60;;
3000;SDS011;1510;51.072;6.678;2024-03-25T14:10:14;7.10;;;2.27;;
3000;SDS011;1510;51.072;6.678;2024-03-25T14:12:40;9.10;;;2.03;;
3000;SDS011;1510;51.072;6.678;2024-03-25T14:15:06;7.67;;;2.10;;
3000;SDS011;1510;51.072;6.678;2024-03-25T14:17:32;7.47;;;2.63;;
3000;SDS011;1510;51.072;6.678;2024-03-25T14:19:59;9.97;;;2.80;;
3000;SDS011;1510;51.072;6.678;2024-03-25T14:22:25;7.30;;;2.37;;
3000;SDS011;1510;51.072;6.678;2024-03-25T14:24:52;8.57;;;2.40;;
3000;SDS011;1510;51.072;6.678;2024-03-25T14:27:18;8.93;;;2.50;;
3000;SDS011;1510;51.072;6.678;2024-03-25T14:29:43;9.37;;;2.50;;
3000;SDS011;1510;51.072;6.678;2024-03-25T14:32:09;6.77;;;2.40;;
3000;SDS011;1510;51.072;6.678;2024-03-25T14:34:35;10.70;;;2.20;;
3000;SDS011;1510;51.072;6.678;2024-03-25T14:37:02;9.30;;;2.30;;
3000;SDS011;1510;51.072;6.678;2024-03-25T14:39:28;7.37;;;2.20;;